sensor_id;sensor_type;location;lat;lon;timestamp;P1;durP1;ratioP1;P2;durP2;ratioP2
16832;SDS011;8533;48.426;10.868;2023-02-15T00:01:34;31.93;;;10.57;;
16832;SDS011;8533;48.426;10.868;2023-02-15T00:04:03;37.70;;;10.73;;
16832;SDS011;8533;48.426;10.868;2023-02-15T00:06:32;24.20;;;9.17;;
16832;SDS011;8533;48.426;10.868;2023-02-15T00:09:00;31.33;;;9.57;;
16832;SDS011;8533;48.426;10.868;2023-02-15T00:11:29;27.97;;;9.97;;
16832;SDS011;8533;48.426;10.868;2023-02-15T00:16:43;40.00;;;10.77;;
16832;SDS011;8533;48.426;10.868;2023-02-15T00:19:12;30.30;;;9.60;;
16832;SDS011;8533;48.426;10.868;2023-02-15T00:21:41;45.20;;;11.13;;
16832;SDS011;8533;48.426;10.868;2023-02-15T00:24:09;41.73;;;10.43;;
16832;SDS011;8533;48.426;10.868;2023-02-15T00:26:39;38.37;;;10.57;;
16832;SDS011;8533;48.426;10.868;2023-02-15T00:29:07;39.57;;;10.70;;
16832;SDS011;8533;48.426;10.868;2023-02-15T00:31:36;45.37;;;10.67;;
16832;SDS011;8533;48.426;10.868;2023-02-15T00:34:05;24.70;;;10.17;;
16832;SDS011;8533;48.426;10.868;2023-02-15T00:36:35;29.37;;;10.23;;
16832;SDS011;8533;48.426;10.868;2023-02-15T00:39:02;31.40;;;10.77;;
16832;SDS011;8533;48.426;10.868;2023-02-15T00:41:31;49.47;;;11.03;;
16832;SDS011;8533;48.426;10.868;2023-02-15T00:43:59;34.87;;;11.23;;
16832;SDS011;8533;48.426;10.868;2023-02-15T00:46:27;23.60;;;9.37;;
16832;SDS011;8533;48.426;10.868;2023-02-15T00:48:55;23.20;;;9.27;;
16832;SDS011;8533;48.426;10.868;2023-02-15T00:51:23;44.43;;;10.80;;
16832;SDS011;8533;48.426;10.868;2023-02-15T00:53:51;21.33;;;9.20;;
16832;SDS011;8533;48.426;10.868;2023-02-15T00:56:19;33.90;;;9.80;;
16832;SDS011;8533;48.426;10.868;2023-02-15T00:58:46;21.60;;;9.03;;
16832;SDS011;8533;48.426;10.868;2023-02-15T01:01:20;33.30;;;9.20;;
16832;SDS011;8533;48.426;10.868;2023-02-15T01:03:45;29.60;;;10.17;;
16832;SDS011;8533;48.426;10.868;2023-02-15T01:06:14;33.23;;;10.57;;
16832;SDS011;8533;48.426;10.868;2023-02-15T01:08:43;20.10;;;9.60;;
16832;SDS011;8533;48.426;10.868;2023-02-15T01:11:13;28.20;;;10.87;;
16832;SDS011;8533;48.426;10.868;2023-02-15T01:13:44;32.43;;;10.70;;
16832;SDS011;8533;48.426;10.868;2023-02-15T01:16:11;22.40;;;9.67;;
16832;SDS011;8533;48.426;10.868;2023-02-15T01:18:39;22.97;;;9.27;;
16832;SDS011;8533;48.426;10.868;2023-02-15T01:21:10;29.63;;;10.00;;
16832;SDS011;8533;48.426;10.868;2023-02-15T01:23:40;20.37;;;9.80;;
16832;SDS011;8533;48.426;10.868;2023-02-15T01:26:09;29.70;;;9.97;;
16832;SDS011;8533;48.426;10.868;2023-02-15T01:28:37;45.00;;;11.27;;
16832;SDS011;8533;48.426;10.868;2023-02-15T01:31:08;50.13;;;12.63;;
16832;SDS011;8533;48.426;10.868;2023-02-15T01:33:37;48.37;;;10.33;;
16832;SDS011;8533;48.426;10.868;2023-02-15T01:36:06;37.67;;;11.20;;
16832;SDS011;8533;48.426;10.868;2023-02-15T01:38:34;27.47;;;9.77;;
16832;SDS011;8533;48.426;10.868;2023-02-15T01:41:02;46.10;;;11.73;;
16832;SDS011;8533;48.426;10.868;2023-02-15T01:43:58;23.23;;;10.17;;
16832;SDS011;8533;48.426;10.868;2023-02-15T01:49:00;23.30;;;11.27;;
16832;SDS011;8533;48.426;10.868;2023-02-15T01:51:30;32.40;;;10.20;;
16832;SDS011;8533;48.426;10.868;2023-02-15T01:54:11;47.70;;;11.27;;
16832;SDS011;8533;48.426;10.868;2023-02-15T01:59:08;24.53;;;9.53;;
16832;SDS011;8533;48.426;10.868;2023-02-15T02:01:37;34.20;;;9.33;;
16832;SDS011;8533;48.426;10.868;2023-02-15T02:04:13;27.20;;;10.27;;
16832;SDS011;8533;48.426;10.868;2023-02-15T02:09:08;23.50;;;9.40;;
16832;SDS011;8533;48.426;10.868;2023-02-15T02:11:35;17.47;;;8.83;;
16832;SDS011;8533;48.426;10.868;2023-02-15T02:14:04;21.17;;;8.43;;
16832;SDS011;8533;48.426;10.868;2023-02-15T02:27:34;19.13;;;9.83;;
16832;SDS011;8533;48.426;10.868;2023-02-15T02:35:47;41.43;;;9.93;;
16832;SDS011;8533;48.426;10.868;2023-02-15T02:43:37;30.57;;;9.63;;
16832;SDS011;8533;48.426;10.868;2023-02-15T02:48:34;28.10;;;10.03;;
16832;SDS011;8533;48.426;10.868;2023-02-15T02:51:02;26.43;;;9.73;;
16832;SDS011;8533;48.426;10.868;2023-02-15T02:53:30;30.47;;;9.10;;
16832;SDS011;8533;48.426;10.868;2023-02-15T02:56:04;21.63;;;9.27;;
16832;SDS011;8533;48.426;10.868;2023-02-15T03:01:53;26.10;;;9.47;;
16832;SDS011;8533;48.426;10.868;2023-02-15T03:03:47;19.00;;;8.83;;
16832;SDS011;8533;48.426;10.868;2023-02-15T03:08:47;15.90;;;8.10;;
16832;SDS011;8533;48.426;10.868;2023-02-15T03:11:16;25.67;;;9.20;;
16832;SDS011;8533;48.426;10.868;2023-02-15T03:13:43;22.10;;;8.90;;
16832;SDS011;8533;48.426;10.868;2023-02-15T03:16:14;31.53;;;10.10;;
16832;SDS011;8533;48.426;10.868;2023-02-15T03:24:20;27.30;;;9.40;;
16832;SDS011;8533;48.426;10.868;2023-02-15T03:29:04;59.60;;;10.83;;
16832;SDS011;8533;48.426;10.868;2023-02-15T03:31:35;32.57;;;9.67;;
16832;SDS011;8533;48.426;10.868;2023-02-15T03:34:06;15.30;;;8.17;;
16832;SDS011;8533;48.426;10.868;2023-02-15T03:39:19;30.57;;;9.63;;
16832;SDS011;8533;48.426;10.868;2023-02-15T03:41:58;33.90;;;9.70;;
16832;SDS011;8533;48.426;10.868;2023-02-15T03:44:27;24.10;;;9.37;;
16832;SDS011;8533;48.426;10.868;2023-02-15T03:49:50;18.73;;;9.27;;
16832;SDS011;8533;48.426;10.868;2023-02-15T03:52:20;34.40;;;10.03;;
16832;SDS011;8533;48.426;10.868;2023-02-15T03:54:50;25.40;;;10.23;;
16832;SDS011;8533;48.426;10.868;2023-02-15T03:57:20;24.77;;;9.70;;
16832;SDS011;8533;48.426;10.868;2023-02-15T04:00:11;21.97;;;9.27;;
16832;SDS011;8533;48.426;10.868;2023-02-15T04:05:44;15.80;;;8.80;;
16832;SDS011;8533;48.426;10.868;2023-02-15T04:08:11;23.87;;;10.00;;
16832;SDS011;8533;48.426;10.868;2023-02-15T04:10:39;28.80;;;9.07;;
16832;SDS011;8533;48.426;10.868;2023-02-15T04:15:50;20.00;;;9.23;;
16832;SDS011;8533;48.426;10.868;2023-02-15T04:21:23;26.83;;;9.53;;
16832;SDS011;8533;48.426;10.868;2023-02-15T04:24:10;24.13;;;9.57;;
16832;SDS011;8533;48.426;10.868;2023-02-15T04:26:56;18.80;;;9.50;;
16832;SDS011;8533;48.426;10.868;2023-02-15T04:29:25;33.43;;;9.57;;
16832;SDS011;8533;48.426;10.868;2023-02-15T04:31:54;33.80;;;9.93;;
16832;SDS011;8533;48.426;10.868;2023-02-15T04:34:23;28.63;;;9.57;;
16832;SDS011;8533;48.426;10.868;2023-02-15T04:36:50;43.13;;;9.23;;
16832;SDS011;8533;48.426;10.868;2023-02-15T04:39:18;22.40;;;9.57;;
16832;SDS011;8533;48.426;10.868;2023-02-15T04:41:46;33.33;;;11.37;;
16832;SDS011;8533;48.426;10.868;2023-02-15T04:44:14;20.80;;;9.13;;
16832;SDS011;8533;48.426;10.868;2023-02-15T04:46:41;19.30;;;9.40;;
16832;SDS011;8533;48.426;10.868;2023-02-15T04:49:08;20.37;;;10.10;;
16832;SDS011;8533;48.426;10.868;2023-02-15T04:51:36;21.07;;;10.53;;
16832;SDS011;8533;48.426;10.868;2023-02-15T04:54:03;22.73;;;10.17;;
16832;SDS011;8533;48.426;10.868;2023-02-15T04:56:31;24.87;;;10.57;;
16832;SDS011;8533;48.426;10.868;2023-02-15T04:59:00;30.67;;;9.57;;
16832;SDS011;8533;48.426;10.868;2023-02-15T05:01:27;23.13;;;10.20;;
16832;SDS011;8533;48.426;10.868;2023-02-15T05:03:56;18.97;;;9.47;;
16832;SDS011;8533;48.426;10.868;2023-02-15T05:06:23;24.00;;;10.07;;
16832;SDS011;8533;48.426;10.868;2023-02-15T05:08:51;27.13;;;9.57;;
16832;SDS011;8533;48.426;10.868;2023-02-15T05:11:18;20.50;;;9.60;;
16832;SDS011;8533;48.426;10.868;2023-02-15T05:13:46;25.00;;;10.17;;
16832;SDS011;8533;48.426;10.868;2023-02-15T05:16:13;22.10;;;9.27;;
16832;SDS011;8533;48.426;10.868;2023-02-15T05:18:40;22.77;;;10.07;;
16832;SDS011;8533;48.426;10.868;2023-02-15T05:21:11;23.47;;;10.07;;
16832;SDS011;8533;48.426;10.868;2023-02-15T05:23:44;23.57;;;9.90;;
16832;SDS011;8533;48.426;10.868;2023-02-15T05:26:12;22.10;;;9.07;;
16832;SDS011;8533;48.426;10.868;2023-02-15T05:28:59;18.73;;;9.40;;
16832;SDS011;8533;48.426;10.868;2023-02-15T05:31:27;28.77;;;8.57;;
16832;SDS011;8533;48.426;10.868;2023-02-15T05:33:54;27.67;;;9.30;;
16832;SDS011;8533;48.426;10.868;2023-02-15T05:36:21;20.27;;;8.43;;
16832;SDS011;8533;48.426;10.868;2023-02-15T05:38:49;29.23;;;8.70;;
16832;SDS011;8533;48.426;10.868;2023-02-15T05:41:19;17.30;;;9.40;;
16832;SDS011;8533;48.426;10.868;2023-02-15T05:43:46;16.57;;;8.53;;
16832;SDS011;8533;48.426;10.868;2023-02-15T05:46:14;18.53;;;9.10;;
16832;SDS011;8533;48.426;10.868;2023-02-15T05:48:42;15.67;;;8.77;;
16832;SDS011;8533;48.426;10.868;2023-02-15T05:51:11;15.27;;;8.60;;
16832;SDS011;8533;48.426;10.868;2023-02-15T05:53:41;24.20;;;9.10;;
16832;SDS011;8533;48.426;10.868;2023-02-15T05:56:14;22.23;;;8.80;;
16832;SDS011;8533;48.426;10.868;2023-02-15T06:01:16;14.03;;;7.80;;
16832;SDS011;8533;48.426;10.868;2023-02-15T06:03:49;17.47;;;9.37;;
16832;SDS011;8533;48.426;10.868;2023-02-15T06:11:36;17.37;;;9.00;;
16832;SDS011;8533;48.426;10.868;2023-02-15T06:14:03;21.47;;;9.73;;
16832;SDS011;8533;48.426;10.868;2023-02-15T06:16:31;14.60;;;8.40;;
16832;SDS011;8533;48.426;10.868;2023-02-15T06:18:59;31.30;;;9.83;;
16832;SDS011;8533;48.426;10.868;2023-02-15T06:21:27;21.50;;;9.13;;
16832;SDS011;8533;48.426;10.868;2023-02-15T06:23:56;15.93;;;8.87;;
16832;SDS011;8533;48.426;10.868;2023-02-15T06:26:23;17.63;;;9.60;;
16832;SDS011;8533;48.426;10.868;2023-02-15T06:28:51;23.77;;;10.40;;
16832;SDS011;8533;48.426;10.868;2023-02-15T06:31:18;20.00;;;9.77;;
16832;SDS011;8533;48.426;10.868;2023-02-15T06:33:45;17.33;;;9.00;;
16832;SDS011;8533;48.426;10.868;2023-02-15T06:36:13;19.40;;;9.10;;
16832;SDS011;8533;48.426;10.868;2023-02-15T06:38:40;20.30;;;9.10;;
16832;SDS011;8533;48.426;10.868;2023-02-15T06:41:08;15.13;;;8.83;;
16832;SDS011;8533;48.426;10.868;2023-02-15T06:43:35;18.40;;;9.87;;
16832;SDS011;8533;48.426;10.868;2023-02-15T06:46:03;19.90;;;9.70;;
16832;SDS011;8533;48.426;10.868;2023-02-15T06:48:30;20.80;;;9.47;;
16832;SDS011;8533;48.426;10.868;2023-02-15T06:50:58;15.97;;;8.63;;
16832;SDS011;8533;48.426;10.868;2023-02-15T06:53:25;21.37;;;9.83;;
16832;SDS011;8533;48.426;10.868;2023-02-15T06:55:53;15.67;;;9.47;;
16832;SDS011;8533;48.426;10.868;2023-02-15T07:00:57;19.00;;;9.50;;
16832;SDS011;8533;48.426;10.868;2023-02-15T07:03:25;19.23;;;9.87;;
16832;SDS011;8533;48.426;10.868;2023-02-15T07:05:56;16.53;;;8.80;;
16832;SDS011;8533;48.426;10.868;2023-02-15T07:08:24;16.40;;;9.53;;
16832;SDS011;8533;48.426;10.868;2023-02-15T07:10:53;16.13;;;8.87;;
16832;SDS011;8533;48.426;10.868;2023-02-15T07:13:26;17.77;;;9.53;;
16832;SDS011;8533;48.426;10.868;2023-02-15T07:15:54;17.57;;;8.73;;
16832;SDS011;8533;48.426;10.868;2023-02-15T07:18:21;19.80;;;9.63;;
16832;SDS011;8533;48.426;10.868;2023-02-15T07:20:49;23.23;;;9.20;;
16832;SDS011;8533;48.426;10.868;2023-02-15T07:23:16;17.30;;;8.93;;
16832;SDS011;8533;48.426;10.868;2023-02-15T07:25:43;23.30;;;10.23;;
16832;SDS011;8533;48.426;10.868;2023-02-15T07:28:11;23.23;;;9.87;;
16832;SDS011;8533;48.426;10.868;2023-02-15T07:30:38;18.97;;;10.20;;
16832;SDS011;8533;48.426;10.868;2023-02-15T07:33:06;17.90;;;9.50;;
16832;SDS011;8533;48.426;10.868;2023-02-15T07:35:56;30.10;;;13.33;;
16832;SDS011;8533;48.426;10.868;2023-02-15T07:38:26;24.43;;;11.73;;
16832;SDS011;8533;48.426;10.868;2023-02-15T07:41:01;16.60;;;9.10;;
16832;SDS011;8533;48.426;10.868;2023-02-15T07:43:38;21.37;;;10.47;;
16832;SDS011;8533;48.426;10.868;2023-02-15T07:46:03;18.50;;;10.07;;
16832;SDS011;8533;48.426;10.868;2023-02-15T07:48:33;21.80;;;9.63;;
16832;SDS011;8533;48.426;10.868;2023-02-15T07:51:02;17.93;;;9.53;;
16832;SDS011;8533;48.426;10.868;2023-02-15T07:53:31;23.03;;;10.13;;
16832;SDS011;8533;48.426;10.868;2023-02-15T07:56:00;21.53;;;10.03;;
16832;SDS011;8533;48.426;10.868;2023-02-15T07:58:29;23.13;;;10.43;;
16832;SDS011;8533;48.426;10.868;2023-02-15T08:01:14;21.50;;;10.75;;
16832;SDS011;8533;48.426;10.868;2023-02-15T08:03:42;18.90;;;10.33;;
16832;SDS011;8533;48.426;10.868;2023-02-15T08:06:09;17.80;;;9.50;;
16832;SDS011;8533;48.426;10.868;2023-02-15T08:08:38;22.57;;;10.33;;
16832;SDS011;8533;48.426;10.868;2023-02-15T08:16:26;20.00;;;10.27;;
16832;SDS011;8533;48.426;10.868;2023-02-15T08:18:55;25.50;;;12.13;;
16832;SDS011;8533;48.426;10.868;2023-02-15T08:21:25;23.77;;;11.00;;
16832;SDS011;8533;48.426;10.868;2023-02-15T08:23:55;22.60;;;11.67;;
16832;SDS011;8533;48.426;10.868;2023-02-15T08:26:23;26.17;;;12.77;;
16832;SDS011;8533;48.426;10.868;2023-02-15T08:28:53;25.53;;;11.37;;
16832;SDS011;8533;48.426;10.868;2023-02-15T08:31:21;23.47;;;12.60;;
16832;SDS011;8533;48.426;10.868;2023-02-15T08:33:49;20.50;;;10.77;;
16832;SDS011;8533;48.426;10.868;2023-02-15T08:36:19;23.17;;;11.37;;
16832;SDS011;8533;48.426;10.868;2023-02-15T08:38:48;22.97;;;12.13;;
16832;SDS011;8533;48.426;10.868;2023-02-15T08:41:16;26.43;;;12.27;;
16832;SDS011;8533;48.426;10.868;2023-02-15T08:43:50;29.93;;;13.00;;
16832;SDS011;8533;48.426;10.868;2023-02-15T08:46:19;25.47;;;12.30;;
16832;SDS011;8533;48.426;10.868;2023-02-15T08:48:48;27.23;;;12.10;;
16832;SDS011;8533;48.426;10.868;2023-02-15T08:51:20;25.00;;;12.10;;
16832;SDS011;8533;48.426;10.868;2023-02-15T08:53:50;21.17;;;11.23;;
16832;SDS011;8533;48.426;10.868;2023-02-15T08:56:23;25.07;;;12.20;;
16832;SDS011;8533;48.426;10.868;2023-02-15T08:58:53;24.00;;;12.60;;
16832;SDS011;8533;48.426;10.868;2023-02-15T09:01:22;24.10;;;11.67;;
16832;SDS011;8533;48.426;10.868;2023-02-15T09:03:54;26.37;;;11.63;;
16832;SDS011;8533;48.426;10.868;2023-02-15T09:08:54;23.80;;;12.23;;
16832;SDS011;8533;48.426;10.868;2023-02-15T09:11:24;24.07;;;11.60;;
16832;SDS011;8533;48.426;10.868;2023-02-15T09:13:56;22.60;;;10.97;;
16832;SDS011;8533;48.426;10.868;2023-02-15T09:16:27;24.40;;;11.87;;
16832;SDS011;8533;48.426;10.868;2023-02-15T09:18:56;24.43;;;11.93;;
16832;SDS011;8533;48.426;10.868;2023-02-15T09:21:25;25.37;;;12.07;;
16832;SDS011;8533;48.426;10.868;2023-02-15T09:24:00;23.00;;;11.73;;
16832;SDS011;8533;48.426;10.868;2023-02-15T09:28:58;25.60;;;12.80;;
16832;SDS011;8533;48.426;10.868;2023-02-15T09:31:30;22.30;;;12.30;;
16832;SDS011;8533;48.426;10.868;2023-02-15T09:33:59;25.20;;;11.10;;
16832;SDS011;8533;48.426;10.868;2023-02-15T09:36:34;23.73;;;11.60;;
16832;SDS011;8533;48.426;10.868;2023-02-15T09:44:46;25.15;;;11.50;;
16832;SDS011;8533;48.426;10.868;2023-02-15T09:53:22;20.20;;;10.90;;
16832;SDS011;8533;48.426;10.868;2023-02-15T09:56:15;20.90;;;11.10;;
16832;SDS011;8533;48.426;10.868;2023-02-15T10:01:51;24.07;;;11.93;;
16832;SDS011;8533;48.426;10.868;2023-02-15T10:09:32;21.90;;;11.27;;
16832;SDS011;8533;48.426;10.868;2023-02-15T10:23:38;17.97;;;10.17;;
16832;SDS011;8533;48.426;10.868;2023-02-15T10:42:26;20.27;;;11.43;;
16832;SDS011;8533;48.426;10.868;2023-02-15T10:58:46;21.23;;;9.73;;
16832;SDS011;8533;48.426;10.868;2023-02-15T11:01:39;16.10;;;9.53;;
16832;SDS011;8533;48.426;10.868;2023-02-15T11:06:58;23.20;;;10.37;;
16832;SDS011;8533;48.426;10.868;2023-02-15T11:09:29;17.37;;;10.23;;
16832;SDS011;8533;48.426;10.868;2023-02-15T11:11:57;19.90;;;10.17;;
16832;SDS011;8533;48.426;10.868;2023-02-15T11:17:19;16.90;;;9.87;;
16832;SDS011;8533;48.426;10.868;2023-02-15T11:22:27;19.03;;;10.13;;
16832;SDS011;8533;48.426;10.868;2023-02-15T11:24:57;19.20;;;10.50;;
16832;SDS011;8533;48.426;10.868;2023-02-15T11:27:30;17.87;;;9.90;;
16832;SDS011;8533;48.426;10.868;2023-02-15T11:40:28;17.43;;;9.33;;
16832;SDS011;8533;48.426;10.868;2023-02-15T11:42:59;19.40;;;10.00;;
16832;SDS011;8533;48.426;10.868;2023-02-15T11:45:29;18.97;;;9.77;;
16832;SDS011;8533;48.426;10.868;2023-02-15T11:48:00;16.13;;;9.60;;
16832;SDS011;8533;48.426;10.868;2023-02-15T11:50:30;17.17;;;10.37;;
16832;SDS011;8533;48.426;10.868;2023-02-15T11:53:00;19.33;;;10.73;;
16832;SDS011;8533;48.426;10.868;2023-02-15T11:55:30;18.20;;;9.87;;
16832;SDS011;8533;48.426;10.868;2023-02-15T11:58:02;18.30;;;9.47;;
16832;SDS011;8533;48.426;10.868;2023-02-15T12:00:47;18.73;;;10.27;;
16832;SDS011;8533;48.426;10.868;2023-02-15T12:03:18;14.80;;;9.53;;
16832;SDS011;8533;48.426;10.868;2023-02-15T12:05:49;20.73;;;10.70;;
16832;SDS011;8533;48.426;10.868;2023-02-15T12:08:19;18.40;;;10.67;;
16832;SDS011;8533;48.426;10.868;2023-02-15T12:10:55;19.37;;;10.00;;
16832;SDS011;8533;48.426;10.868;2023-02-15T12:15:56;18.70;;;10.90;;
16832;SDS011;8533;48.426;10.868;2023-02-15T12:18:33;20.23;;;10.43;;
16832;SDS011;8533;48.426;10.868;2023-02-15T12:23:34;17.83;;;10.40;;
16832;SDS011;8533;48.426;10.868;2023-02-15T12:26:04;18.73;;;11.63;;
16832;SDS011;8533;48.426;10.868;2023-02-15T12:28:34;20.90;;;10.63;;
16832;SDS011;8533;48.426;10.868;2023-02-15T12:33:36;21.97;;;10.47;;
16832;SDS011;8533;48.426;10.868;2023-02-15T12:38:39;18.40;;;10.40;;
16832;SDS011;8533;48.426;10.868;2023-02-15T12:44:03;17.50;;;10.30;;
16832;SDS011;8533;48.426;10.868;2023-02-15T12:46:35;21.60;;;10.80;;
16832;SDS011;8533;48.426;10.868;2023-02-15T12:49:06;21.87;;;11.53;;
16832;SDS011;8533;48.426;10.868;2023-02-15T12:54:16;20.07;;;11.10;;
16832;SDS011;8533;48.426;10.868;2023-02-15T12:59:22;18.27;;;10.20;;
16832;SDS011;8533;48.426;10.868;2023-02-15T13:01:51;20.70;;;10.60;;
16832;SDS011;8533;48.426;10.868;2023-02-15T13:04:26;18.03;;;9.93;;
16832;SDS011;8533;48.426;10.868;2023-02-15T13:14:41;22.43;;;11.67;;
16832;SDS011;8533;48.426;10.868;2023-02-15T13:17:07;19.47;;;11.33;;
16832;SDS011;8533;48.426;10.868;2023-02-15T13:19:45;18.23;;;9.77;;
16832;SDS011;8533;48.426;10.868;2023-02-15T13:24:43;19.03;;;10.77;;
16832;SDS011;8533;48.426;10.868;2023-02-15T13:27:29;22.10;;;11.60;;
16832;SDS011;8533;48.426;10.868;2023-02-15T13:32:31;19.07;;;11.07;;
16832;SDS011;8533;48.426;10.868;2023-02-15T13:35:04;22.30;;;12.60;;
16832;SDS011;8533;48.426;10.868;2023-02-15T13:45:19;23.20;;;11.93;;
16832;SDS011;8533;48.426;10.868;2023-02-15T14:01:02;27.23;;;12.57;;
16832;SDS011;8533;48.426;10.868;2023-02-15T14:03:44;19.30;;;11.40;;
16832;SDS011;8533;48.426;10.868;2023-02-15T14:09:13;22.20;;;12.27;;
16832;SDS011;8533;48.426;10.868;2023-02-15T14:14:37;19.97;;;11.17;;
16832;SDS011;8533;48.426;10.868;2023-02-15T14:22:23;21.97;;;12.13;;
16832;SDS011;8533;48.426;10.868;2023-02-15T14:30:15;21.93;;;12.27;;
16832;SDS011;8533;48.426;10.868;2023-02-15T14:35:21;23.10;;;12.87;;
16832;SDS011;8533;48.426;10.868;2023-02-15T14:37:54;24.13;;;12.83;;
16832;SDS011;8533;48.426;10.868;2023-02-15T14:49:08;25.57;;;13.07;;
16832;SDS011;8533;48.426;10.868;2023-02-15T15:04:57;22.50;;;12.07;;
16832;SDS011;8533;48.426;10.868;2023-02-15T15:15:04;25.63;;;12.70;;
16832;SDS011;8533;48.426;10.868;2023-02-15T15:20:13;23.60;;;12.47;;
16832;SDS011;8533;48.426;10.868;2023-02-15T15:25:45;21.87;;;12.77;;
16832;SDS011;8533;48.426;10.868;2023-02-15T15:31:20;28.27;;;14.10;;
16832;SDS011;8533;48.426;10.868;2023-02-15T15:49:50;31.27;;;15.67;;
16832;SDS011;8533;48.426;10.868;2023-02-15T15:52:20;33.47;;;16.40;;
16832;SDS011;8533;48.426;10.868;2023-02-15T15:54:58;31.70;;;16.07;;
16832;SDS011;8533;48.426;10.868;2023-02-15T16:00:03;34.03;;;15.27;;
16832;SDS011;8533;48.426;10.868;2023-02-15T16:02:32;29.93;;;14.03;;
16832;SDS011;8533;48.426;10.868;2023-02-15T16:05:08;32.13;;;15.50;;
16832;SDS011;8533;48.426;10.868;2023-02-15T16:10:04;30.60;;;15.57;;
16832;SDS011;8533;48.426;10.868;2023-02-15T16:12:34;27.00;;;15.37;;
16832;SDS011;8533;48.426;10.868;2023-02-15T16:15:17;29.00;;;15.53;;
16832;SDS011;8533;48.426;10.868;2023-02-15T16:17:53;29.87;;;15.20;;
16832;SDS011;8533;48.426;10.868;2023-02-15T16:20:27;29.37;;;15.33;;
16832;SDS011;8533;48.426;10.868;2023-02-15T16:28:15;29.70;;;14.93;;
16832;SDS011;8533;48.426;10.868;2023-02-15T16:30:44;28.90;;;14.87;;
16832;SDS011;8533;48.426;10.868;2023-02-15T16:33:13;28.93;;;14.10;;
16832;SDS011;8533;48.426;10.868;2023-02-15T16:35:55;24.80;;;14.37;;
16832;SDS011;8533;48.426;10.868;2023-02-15T16:40:55;27.93;;;14.93;;
16832;SDS011;8533;48.426;10.868;2023-02-15T16:43:24;31.57;;;15.13;;
16832;SDS011;8533;48.426;10.868;2023-02-15T16:45:58;31.43;;;15.47;;
16832;SDS011;8533;48.426;10.868;2023-02-15T16:48:27;29.03;;;14.83;;
16832;SDS011;8533;48.426;10.868;2023-02-15T16:50:58;26.20;;;13.87;;
16832;SDS011;8533;48.426;10.868;2023-02-15T16:53:28;27.83;;;13.93;;
16832;SDS011;8533;48.426;10.868;2023-02-15T16:55:59;28.37;;;15.43;;
16832;SDS011;8533;48.426;10.868;2023-02-15T16:58:42;26.77;;;14.37;;
16832;SDS011;8533;48.426;10.868;2023-02-15T17:01:12;30.70;;;16.10;;
16832;SDS011;8533;48.426;10.868;2023-02-15T17:03:41;29.10;;;15.47;;
16832;SDS011;8533;48.426;10.868;2023-02-15T17:06:19;33.00;;;15.40;;
16832;SDS011;8533;48.426;10.868;2023-02-15T17:08:52;26.50;;;15.00;;
16832;SDS011;8533;48.426;10.868;2023-02-15T17:11:22;28.00;;;14.93;;
16832;SDS011;8533;48.426;10.868;2023-02-15T17:19:07;28.67;;;14.87;;
16832;SDS011;8533;48.426;10.868;2023-02-15T17:24:15;28.63;;;15.37;;
16832;SDS011;8533;48.426;10.868;2023-02-15T17:26:43;29.20;;;14.47;;
16832;SDS011;8533;48.426;10.868;2023-02-15T17:29:22;29.33;;;15.57;;
16832;SDS011;8533;48.426;10.868;2023-02-15T17:32:00;31.13;;;14.97;;
16832;SDS011;8533;48.426;10.868;2023-02-15T17:34:41;29.23;;;15.30;;
16832;SDS011;8533;48.426;10.868;2023-02-15T17:37:23;30.50;;;17.00;;
16832;SDS011;8533;48.426;10.868;2023-02-15T17:40:00;56.27;;;26.33;;
16832;SDS011;8533;48.426;10.868;2023-02-15T17:42:29;31.77;;;17.63;;
16832;SDS011;8533;48.426;10.868;2023-02-15T17:44:57;28.83;;;15.93;;
16832;SDS011;8533;48.426;10.868;2023-02-15T17:47:25;33.33;;;16.73;;
16832;SDS011;8533;48.426;10.868;2023-02-15T17:49:54;34.10;;;17.87;;
16832;SDS011;8533;48.426;10.868;2023-02-15T17:52:21;35.37;;;17.83;;
16832;SDS011;8533;48.426;10.868;2023-02-15T17:54:52;38.63;;;20.83;;
16832;SDS011;8533;48.426;10.868;2023-02-15T17:57:37;37.87;;;18.30;;
16832;SDS011;8533;48.426;10.868;2023-02-15T18:00:05;36.90;;;18.93;;
16832;SDS011;8533;48.426;10.868;2023-02-15T18:02:51;35.80;;;18.47;;
16832;SDS011;8533;48.426;10.868;2023-02-15T18:05:37;34.25;;;17.40;;
16832;SDS011;8533;48.426;10.868;2023-02-15T18:08:24;31.25;;;16.20;;
16832;SDS011;8533;48.426;10.868;2023-02-15T18:11:11;36.97;;;17.87;;
16832;SDS011;8533;48.426;10.868;2023-02-15T18:13:56;33.85;;;17.70;;
16832;SDS011;8533;48.426;10.868;2023-02-15T18:16:27;36.30;;;19.43;;
16832;SDS011;8533;48.426;10.868;2023-02-15T18:18:57;76.27;;;31.97;;
16832;SDS011;8533;48.426;10.868;2023-02-15T18:21:25;41.53;;;20.20;;
16832;SDS011;8533;48.426;10.868;2023-02-15T18:23:52;45.63;;;22.20;;
16832;SDS011;8533;48.426;10.868;2023-02-15T18:26:23;39.07;;;20.60;;
16832;SDS011;8533;48.426;10.868;2023-02-15T18:28:52;34.47;;;18.90;;
16832;SDS011;8533;48.426;10.868;2023-02-15T18:31:19;33.57;;;18.17;;
16832;SDS011;8533;48.426;10.868;2023-02-15T18:33:57;32.57;;;16.87;;
16832;SDS011;8533;48.426;10.868;2023-02-15T18:36:28;32.87;;;17.33;;
16832;SDS011;8533;48.426;10.868;2023-02-15T18:41:27;30.30;;;15.60;;
16832;SDS011;8533;48.426;10.868;2023-02-15T18:43:54;29.67;;;16.43;;
16832;SDS011;8533;48.426;10.868;2023-02-15T18:46:22;31.50;;;15.53;;
16832;SDS011;8533;48.426;10.868;2023-02-15T18:48:49;24.43;;;14.57;;
16832;SDS011;8533;48.426;10.868;2023-02-15T18:51:22;35.43;;;16.07;;
16832;SDS011;8533;48.426;10.868;2023-02-15T18:53:48;36.93;;;18.13;;
16832;SDS011;8533;48.426;10.868;2023-02-15T18:56:18;41.67;;;16.20;;
16832;SDS011;8533;48.426;10.868;2023-02-15T18:58:48;31.30;;;15.47;;
16832;SDS011;8533;48.426;10.868;2023-02-15T19:01:16;65.87;;;15.57;;
16832;SDS011;8533;48.426;10.868;2023-02-15T19:03:46;30.40;;;15.77;;
16832;SDS011;8533;48.426;10.868;2023-02-15T19:06:20;46.00;;;16.90;;
16832;SDS011;8533;48.426;10.868;2023-02-15T19:11:18;59.30;;;18.13;;
16832;SDS011;8533;48.426;10.868;2023-02-15T19:13:48;49.80;;;16.50;;
16832;SDS011;8533;48.426;10.868;2023-02-15T19:16:27;42.87;;;15.60;;
16832;SDS011;8533;48.426;10.868;2023-02-15T19:21:24;64.70;;;17.60;;
16832;SDS011;8533;48.426;10.868;2023-02-15T19:24:01;57.97;;;17.17;;
16832;SDS011;8533;48.426;10.868;2023-02-15T19:28:59;63.77;;;17.90;;
16832;SDS011;8533;48.426;10.868;2023-02-15T19:31:27;35.00;;;15.93;;
16832;SDS011;8533;48.426;10.868;2023-02-15T19:33:55;43.73;;;16.17;;
16832;SDS011;8533;48.426;10.868;2023-02-15T19:36:22;47.00;;;15.50;;
16832;SDS011;8533;48.426;10.868;2023-02-15T19:38:50;53.37;;;16.77;;
16832;SDS011;8533;48.426;10.868;2023-02-15T19:41:24;51.27;;;17.90;;
16832;SDS011;8533;48.426;10.868;2023-02-15T19:46:25;46.60;;;22.63;;
16832;SDS011;8533;48.426;10.868;2023-02-15T19:48:53;88.17;;;25.17;;
16832;SDS011;8533;48.426;10.868;2023-02-15T19:51:20;67.80;;;22.13;;
16832;SDS011;8533;48.426;10.868;2023-02-15T19:53:50;78.00;;;19.13;;
16832;SDS011;8533;48.426;10.868;2023-02-15T19:56:20;54.00;;;19.07;;
16832;SDS011;8533;48.426;10.868;2023-02-15T19:58:49;55.67;;;17.90;;
16832;SDS011;8533;48.426;10.868;2023-02-15T20:01:19;50.70;;;18.53;;
16832;SDS011;8533;48.426;10.868;2023-02-15T20:03:47;52.97;;;17.27;;
16832;SDS011;8533;48.426;10.868;2023-02-15T20:06:16;89.17;;;18.47;;
16832;SDS011;8533;48.426;10.868;2023-02-15T20:08:46;54.77;;;18.30;;